Time;durP1;ratioP1;P1;durP2;ratioP2;P2;SDS_P1;SDS_P2;PMS_P1;PMS_P2;Temp;Humidity;BMP_temperature;BMP_pressure;BME280_temperature;BME280_humidity;BME280_pressure;Samples;Min_cycle;Max_cycle;Signal;HPM_P1;HPM_P2
2022/04/15 00:02:12;;;;;;;27.42;18.67;;;;;;;8.86;85.21;102365.81;5122590;27;20019;-51
2022/04/15 00:04:38;;;;;;;27.83;17.55;;;;;;;8.83;85.13;102368.25;5109227;27;20382;-51
2022/04/15 00:07:03;;;;;;;28.92;19.05;;;;;;;8.77;85.19;102375.63;5126793;27;20039;-51
2022/04/15 00:09:30;;;;;;;28.13;19.38;;;;;;;8.69;86.00;102371.38;5113857;28;20368;-51
2022/04/15 00:11:57;;;;;;;29.25;19.33;;;;;;;8.62;86.61;102372.66;5122134;27;20030;-49
2022/04/15 00:14:22;;;;;;;29.45;18.55;;;;;;;8.52;86.34;102370.59;5118639;27;20023;-51
2022/04/15 00:16:49;;;;;;;28.02;19.08;;;;;;;8.56;86.79;102378.13;5098530;28;20388;-52
2022/04/15 00:19:14;;;;;;;29.42;18.23;;;;;;;8.49;86.35;102376.63;5103571;28;20084;-52
2022/04/15 00:21:40;;;;;;;29.77;18.65;;;;;;;8.47;87.17;102367.72;5115239;27;20049;-53
2022/04/15 00:24:05;;;;;;;30.50;19.65;;;;;;;8.47;86.93;102364.97;5123741;27;20067;-53
2022/04/15 00:26:31;;;;;;;28.48;19.40;;;;;;;8.43;87.29;102365.50;5133336;27;20055;-53
2022/04/15 00:28:57;;;;;;;31.60;20.95;;;;;;;8.39;87.94;102369.00;5107279;27;20139;-52
2022/04/15 00:31:23;;;;;;;29.20;18.88;;;;;;;8.38;88.11;102373.69;5113986;28;20031;-52
2022/04/15 00:33:48;;;;;;;29.88;19.77;;;;;;;8.43;88.16;102381.19;5120841;27;20050;-52
2022/04/15 00:36:13;;;;;;;31.10;19.98;;;;;;;8.38;88.35;102381.13;5118415;27;20468;-51
2022/04/15 00:38:39;;;;;;;29.73;20.33;;;;;;;8.34;89.33;102380.81;5116347;27;20028;-49
2022/04/15 00:41:04;;;;;;;30.10;20.48;;;;;;;8.27;90.01;102386.50;5122903;27;20123;-52
2022/04/15 00:43:29;;;;;;;31.08;19.80;;;;;;;8.29;89.76;102383.47;5115316;27;20468;-52
2022/04/15 00:46:04;;;;;;;31.73;19.40;;;;;;;8.28;89.71;102393.69;5124623;27;20110;-52
2022/04/15 00:48:29;;;;;;;30.98;21.27;;;;;;;8.27;90.13;102392.00;5113418;27;20120;-48
2022/04/15 00:50:55;;;;;;;31.52;21.27;;;;;;;8.29;90.29;102394.50;5125759;27;20065;-52
2022/04/15 00:53:22;;;;;;;31.13;20.42;;;;;;;8.24;90.80;102399.94;5121112;27;20105;-52
2022/04/15 00:55:53;;;;;;;31.58;19.92;;;;;;;8.20;90.98;102391.34;5125714;27;20027;-52
2022/04/15 00:58:20;;;;;;;30.13;19.75;;;;;;;8.21;91.19;102398.53;5099279;28;20023;-51
2022/04/15 01:00:45;;;;;;;31.17;20.80;;;;;;;8.21;90.80;102398.53;5117467;27;20387;-52
2022/04/15 01:03:15;;;;;;;31.50;20.25;;;;;;;8.25;91.27;102399.69;5121898;27;20098;-51
2022/04/15 01:05:41;;;;;;;32.97;20.42;;;;;;;8.21;90.82;102398.53;5116473;27;20041;-48
2022/04/15 01:08:08;;;;;;;31.88;20.65;;;;;;;8.15;91.71;102391.25;5122416;27;20020;-51
2022/04/15 01:10:36;;;;;;;31.02;20.52;;;;;;;8.15;91.62;102394.00;5113867;27;20035;-50
2022/04/15 01:13:05;;;;;;;32.92;22.00;;;;;;;8.03;92.18;102388.59;5125477;27;20463;-48
2022/04/15 01:15:30;;;;;;;34.72;22.33;;;;;;;8.10;92.38;102400.28;5113328;28;20126;-51
2022/04/15 01:17:55;;;;;;;32.65;21.80;;;;;;;8.04;92.04;102405.94;5119835;27;20055;-51
2022/04/15 01:20:21;;;;;;;32.33;21.65;;;;;;;8.01;91.81;102407.31;5130354;27;20062;-52
2022/04/15 01:22:50;;;;;;;31.83;21.67;;;;;;;7.97;92.01;102400.63;5126084;27;20023;-52
2022/04/15 01:25:17;;;;;;;32.58;22.15;;;;;;;7.91;91.27;102398.84;5122003;27;20040;-51
2022/04/15 01:27:47;;;;;;;33.08;21.48;;;;;;;7.83;92.31;102394.63;5116692;27;20066;-51
2022/04/15 01:30:18;;;;;;;32.05;21.85;;;;;;;7.92;93.04;102411.56;5122105;27;20031;-51
2022/04/15 01:32:44;;;;;;;32.75;21.70;;;;;;;7.89;93.06;102412.03;5114144;27;20114;-49
2022/04/15 01:35:11;;;;;;;31.10;21.45;;;;;;;7.88;93.63;102410.41;5123237;27;20022;-52
2022/04/15 01:37:37;;;;;;;33.90;21.90;;;;;;;7.90;93.97;102408.22;5113306;28;20092;-51
2022/04/15 01:40:07;;;;;;;33.47;22.85;;;;;;;7.94;94.24;102414.91;5123379;27;20118;-51
2022/04/15 01:42:33;;;;;;;33.70;21.88;;;;;;;7.95;94.43;102413.81;5114646;28;20088;-51
2022/04/15 01:44:59;;;;;;;35.05;22.92;;;;;;;7.85;93.84;102410.88;5119164;27;20043;-51
2022/04/15 01:47:25;;;;;;;33.65;21.67;;;;;;;7.80;94.17;102415.22;5120266;27;20359;-53
2022/04/15 01:49:50;;;;;;;34.03;22.90;;;;;;;7.72;95.15;102423.06;5116507;27;20031;-51
2022/04/15 01:52:15;;;;;;;32.97;22.92;;;;;;;7.63;95.16;102426.22;5122008;27;20066;-50
2022/04/15 01:54:40;;;;;;;33.28;22.70;;;;;;;7.56;95.75;102421.94;5114005;28;20476;-52
2022/04/15 01:57:06;;;;;;;32.72;22.00;;;;;;;7.53;95.57;102423.28;5124501;28;20040;-52
2022/04/15 01:59:31;;;;;;;35.22;24.00;;;;;;;7.53;96.18;102427.94;5115248;28;20429;-52
2022/04/15 02:01:56;;;;;;;35.35;22.75;;;;;;;7.48;95.94;102429.53;5123337;28;20088;-52
2022/04/15 02:04:22;;;;;;;34.72;22.40;;;;;;;7.47;95.91;102427.00;5118520;28;20080;-50
2022/04/15 02:06:48;;;;;;;36.17;23.23;;;;;;;7.44;96.15;102427.50;5122582;28;20091;-51
2022/04/15 02:09:13;;;;;;;35.33;22.85;;;;;;;7.46;95.96;102430.88;5126292;28;20023;-49
2022/04/15 02:11:38;;;;;;;36.05;23.25;;;;;;;7.46;95.80;102431.69;5124942;28;20035;-48
2022/04/15 02:14:03;;;;;;;36.35;24.05;;;;;;;7.44;95.86;102442.09;5114266;28;20043;-48
2022/04/15 02:16:29;;;;;;;34.50;23.15;;;;;;;7.38;96.32;102434.84;5120933;28;20261;-49
2022/04/15 02:18:54;;;;;;;36.30;23.58;;;;;;;7.33;96.72;102434.72;5112698;28;20472;-49
2022/04/15 02:21:19;;;;;;;36.28;24.15;;;;;;;7.32;96.81;102442.16;5116374;28;20070;-48
2022/04/15 02:23:45;;;;;;;38.33;26.00;;;;;;;7.30;96.50;102444.31;5121970;28;20031;-49
2022/04/15 02:26:10;;;;;;;37.55;25.70;;;;;;;7.29;97.92;102441.81;5157037;22;20411;-54
2022/04/15 02:28:35;;;;;;;35.67;24.00;;;;;;;7.29;97.12;102452.81;5144730;27;20023;-56
2022/04/15 02:31:00;;;;;;;36.88;24.10;;;;;;;7.23;97.73;102453.78;5114353;28;20031;-57
2022/04/15 02:33:26;;;;;;;34.40;22.55;;;;;;;7.20;97.75;102454.28;5122850;27;20027;-54
2022/04/15 02:35:51;;;;;;;36.22;24.27;;;;;;;7.15;97.72;102461.34;5135082;27;20128;-56
2022/04/15 02:38:16;;;;;;;36.83;24.38;;;;;;;7.14;97.87;102458.84;5136808;27;20035;-56
2022/04/15 02:40:42;;;;;;;40.53;26.52;;;;;;;7.08;98.63;102457.09;5140290;27;20177;-57
2022/04/15 02:43:09;;;;;;;39.28;27.48;;;;;;;7.04;98.75;102456.69;5135537;27;20491;-57
2022/04/15 02:45:34;;;;;;;36.40;25.40;;;;;;;7.06;98.79;102450.97;5141599;27;20437;-56
2022/04/15 02:47:59;;;;;;;35.63;25.30;;;;;;;7.05;98.98;102452.06;5132231;27;20030;-56
2022/04/15 02:50:25;;;;;;;36.75;25.42;;;;;;;7.01;98.60;102446.19;5144546;27;20043;-55
2022/04/15 02:52:50;;;;;;;42.17;26.55;;;;;;;6.96;99.61;102459.84;5132841;27;20494;-55
2022/04/15 02:55:16;;;;;;;37.30;27.17;;;;;;;6.93;99.51;102455.66;5143286;27;20034;-56
2022/04/15 02:57:41;;;;;;;38.10;26.15;;;;;;;6.90;99.47;102458.88;5136308;27;20027;-56
2022/04/15 03:00:07;;;;;;;39.97;25.88;;;;;;;6.87;99.87;102457.47;5135854;27;20047;-56
2022/04/15 03:02:32;;;;;;;41.45;26.55;;;;;;;6.90;100.00;102458.06;5143938;27;20372;-56
2022/04/15 03:04:58;;;;;;;37.63;25.90;;;;;;;6.84;100.00;102459.84;5137153;27;20033;-56
2022/04/15 03:07:23;;;;;;;37.97;25.65;;;;;;;6.81;100.00;102461.19;5146311;27;20023;-58
2022/04/15 03:09:49;;;;;;;39.38;26.45;;;;;;;6.78;100.00;102450.66;5135602;27;20035;-57
2022/04/15 03:12:14;;;;;;;41.42;27.48;;;;;;;6.75;100.00;102459.41;5147677;27;20018;-55
2022/04/15 03:14:39;;;;;;;37.47;25.65;;;;;;;6.78;100.00;102455.31;5135321;27;20029;-56
2022/04/15 03:17:05;;;;;;;36.33;24.75;;;;;;;6.80;100.00;102447.69;5143108;27;20054;-57
2022/04/15 03:19:31;;;;;;;38.28;25.38;;;;;;;6.76;100.00;102461.06;5140809;27;20027;-55
2022/04/15 03:21:56;;;;;;;37.55;25.00;;;;;;;6.77;100.00;102461.91;5138922;27;20389;-54
2022/04/15 03:24:22;;;;;;;37.10;25.38;;;;;;;6.78;100.00;102466.34;5153825;27;20148;-57
2022/04/15 03:26:47;;;;;;;36.70;26.52;;;;;;;6.72;100.00;102466.19;5153492;27;20023;-56
2022/04/15 03:29:12;;;;;;;39.05;26.15;;;;;;;6.66;100.00;102460.84;5145123;27;20083;-57
2022/04/15 03:31:37;;;;;;;38.63;26.35;;;;;;;6.62;100.00;102465.13;5155787;27;20360;-58
2022/04/15 03:34:03;;;;;;;39.30;26.95;;;;;;;6.59;100.00;102476.59;5141848;27;20019;-55
2022/04/15 03:36:28;;;;;;;41.25;27.95;;;;;;;6.58;100.00;102470.28;5154152;27;20110;-56
2022/04/15 03:38:53;;;;;;;48.95;27.05;;;;;;;6.62;100.00;102476.97;5147620;27;20036;-58
2022/04/15 03:41:19;;;;;;;50.90;27.00;;;;;;;6.65;100.00;102472.91;5149530;27;20090;-57
2022/04/15 03:43:44;;;;;;;72.25;27.58;;;;;;;6.62;100.00;102468.72;5149897;27;20382;-57
2022/04/15 03:46:10;;;;;;;60.75;28.02;;;;;;;6.59;100.00;102480.22;5144390;27;20023;-57
2022/04/15 03:48:35;;;;;;;54.95;27.05;;;;;;;6.55;100.00;102476.25;5136225;27;20050;-57
2022/04/15 03:51:00;;;;;;;75.95;29.92;;;;;;;6.53;100.00;102476.50;5146040;27;20019;-56
2022/04/15 03:53:25;;;;;;;63.33;27.67;;;;;;;6.50;100.00;102487.97;5134384;27;20031;-56
2022/04/15 03:55:51;;;;;;;74.72;28.67;;;;;;;6.44;100.00;102491.69;5141820;27;20028;-56
2022/04/15 03:58:16;;;;;;;72.30;25.13;;;;;;;6.27;100.00;102485.22;5153622;27;20067;-57
2022/04/15 04:00:43;;;;;;;70.35;26.77;;;;;;;6.17;100.00;102496.75;5149558;27;20023;-58
2022/04/15 04:03:08;;;;;;;83.22;27.85;;;;;;;6.06;100.00;102490.19;5148138;27;20029;-57
2022/04/15 04:05:34;;;;;;;92.40;27.48;;;;;;;5.98;100.00;102499.56;5143653;27;20027;-58
2022/04/15 04:07:59;;;;;;;55.97;24.42;;;;;;;5.94;100.00;102501.09;5146663;27;20034;-55
2022/04/15 04:10:24;;;;;;;80.13;26.63;;;;;;;5.85;100.00;102497.84;5154515;27;20401;-55
2022/04/15 04:12:51;;;;;;;45.88;24.45;;;;;;;5.77;100.00;102501.75;5142128;27;20039;-56
2022/04/15 04:15:17;;;;;;;42.50;25.02;;;;;;;5.82;100.00;102505.72;5154598;27;20031;-55
2022/04/15 04:17:43;;;;;;;54.88;24.15;;;;;;;5.69;100.00;102504.81;5143485;27;20019;-56
2022/04/15 04:20:10;;;;;;;52.00;23.15;;;;;;;5.67;100.00;102515.19;5156315;27;20029;-56
2022/04/15 04:22:36;;;;;;;78.03;24.60;;;;;;;5.71;100.00;102508.19;5156106;27;20058;-57
2022/04/15 04:25:04;;;;;;;53.55;23.63;;;;;;;5.72;100.00;102512.59;5155579;27;20050;-55
2022/04/15 04:27:30;;;;;;;43.85;23.35;;;;;;;5.78;100.00;102519.06;5155645;27;20117;-55
2022/04/15 04:29:55;;;;;;;51.47;23.88;;;;;;;5.84;100.00;102520.06;5150383;27;20074;-56
2022/04/15 04:32:21;;;;;;;58.22;25.50;;;;;;;5.86;100.00;102518.75;5146475;27;20431;-58
2022/04/15 04:34:46;;;;;;;53.47;25.00;;;;;;;5.91;100.00;102531.78;5155678;27;20042;-57
2022/04/15 04:37:12;;;;;;;79.05;26.77;;;;;;;5.82;100.00;102530.44;5155232;27;20515;-57
2022/04/15 04:39:38;;;;;;;49.70;23.58;;;;;;;5.90;100.00;102530.94;5155105;27;20030;-57
2022/04/15 04:42:04;;;;;;;36.40;23.95;;;;;;;5.99;100.00;102528.75;5155550;27;20067;-57
2022/04/15 04:44:31;;;;;;;35.28;23.48;;;;;;;6.05;100.00;102527.78;5155168;27;20081;-57
2022/04/15 04:46:56;;;;;;;51.25;23.90;;;;;;;6.09;100.00;102534.50;5155119;27;20034;-56
2022/04/15 04:49:22;;;;;;;42.13;22.85;;;;;;;6.11;100.00;102533.44;5155140;27;20459;-57
2022/04/15 04:51:48;;;;;;;41.05;23.05;;;;;;;6.14;100.00;102536.56;5152664;27;20067;-56
2022/04/15 04:54:13;;;;;;;44.80;22.80;;;;;;;6.07;100.00;102535.81;5143559;27;20389;-57
2022/04/15 04:56:38;;;;;;;38.30;23.85;;;;;;;6.09;100.00;102534.50;5147784;27;20090;-56
2022/04/15 04:59:04;;;;;;;37.20;21.88;;;;;;;6.18;100.00;102548.75;5154594;27;20105;-56
2022/04/15 05:01:29;;;;;;;39.30;21.58;;;;;;;6.12;100.00;102555.19;5151954;27;20042;-57
2022/04/15 05:03:54;;;;;;;36.03;21.42;;;;;;;6.08;100.00;102562.22;5154546;27;20022;-57
2022/04/15 05:06:20;;;;;;;32.40;19.92;;;;;;;6.05;100.00;102562.69;5154852;27;20023;-57
2022/04/15 05:08:45;;;;;;;30.85;18.45;;;;;;;6.09;100.00;102567.47;5154592;27;20018;-57
2022/04/15 05:11:10;;;;;;;30.90;19.33;;;;;;;6.13;100.00;102558.78;5153870;27;20019;-58
2022/04/15 05:13:35;;;;;;;30.92;19.80;;;;;;;6.21;100.00;102562.00;5154101;27;20023;-56
2022/04/15 05:16:01;;;;;;;33.20;20.20;;;;;;;6.29;100.00;102557.25;5154026;27;20038;-56
2022/04/15 05:18:26;;;;;;;30.88;20.27;;;;;;;6.33;100.00;102566.72;5154241;27;20026;-55
2022/04/15 05:20:51;;;;;;;34.10;20.73;;;;;;;6.38;100.00;102566.84;5153710;27;20019;-57
2022/04/15 05:23:17;;;;;;;36.65;19.65;;;;;;;6.42;100.00;102565.31;5153934;27;20113;-58
2022/04/15 05:25:42;;;;;;;33.30;21.70;;;;;;;6.43;100.00;102574.38;5154325;27;20099;-58
2022/04/15 05:28:07;;;;;;;33.95;20.70;;;;;;;6.43;100.00;102568.88;5154500;27;20019;-57
2022/04/15 05:30:32;;;;;;;33.10;21.33;;;;;;;6.47;100.00;102579.16;5148883;27;20475;-56
2022/04/15 05:32:58;;;;;;;32.83;20.83;;;;;;;6.52;100.00;102582.06;5145091;27;20110;-57
2022/04/15 05:35:23;;;;;;;33.85;22.10;;;;;;;6.56;100.00;102582.41;5154488;27;20098;-58
2022/04/15 05:37:48;;;;;;;32.85;21.33;;;;;;;6.57;100.00;102589.59;5154306;27;20027;-57
2022/04/15 05:40:14;;;;;;;32.95;20.58;;;;;;;6.60;100.00;102594.63;5153938;27;20058;-58
2022/04/15 05:42:39;;;;;;;30.15;20.05;;;;;;;6.66;100.00;102593.69;5154379;27;20459;-57
2022/04/15 05:45:05;;;;;;;32.95;21.08;;;;;;;6.66;100.00;102601.94;5154266;27;20026;-58
2022/04/15 05:47:30;;;;;;;31.27;19.30;;;;;;;6.74;100.00;102598.00;5153861;27;20444;-55
2022/04/15 05:49:55;;;;;;;34.28;20.40;;;;;;;6.86;100.00;102604.34;5153848;27;20470;-57
2022/04/15 05:52:21;;;;;;;29.65;20.23;;;;;;;6.87;100.00;102605.19;5153690;27;20052;-57
2022/04/15 05:54:46;;;;;;;31.25;19.80;;;;;;;6.85;100.00;102613.66;5153729;27;20134;-54
2022/04/15 05:57:11;;;;;;;32.78;19.60;;;;;;;6.86;100.00;102611.78;5153710;27;20029;-58
2022/04/15 05:59:37;;;;;;;33.30;20.98;;;;;;;6.84;100.00;102622.16;5153908;27;20018;-57
2022/04/15 06:02:03;;;;;;;31.48;19.48;;;;;;;6.91;100.00;102620.13;5148077;27;20034;-59
2022/04/15 06:04:28;;;;;;;32.95;20.45;;;;;;;6.91;100.00;102622.06;5145541;27;20027;-57
2022/04/15 06:06:53;;;;;;;34.20;21.13;;;;;;;6.92;100.00;102621.81;5143667;27;20050;-58
2022/04/15 06:09:18;;;;;;;34.60;20.77;;;;;;;6.94;100.00;102627.94;5132268;27;20023;-58
2022/04/15 06:11:44;;;;;;;32.42;20.63;;;;;;;6.97;100.00;102626.59;5153876;27;20071;-57
2022/04/15 06:14:10;;;;;;;29.15;18.73;;;;;;;7.02;100.00;102635.81;5153821;27;20050;-58
2022/04/15 06:16:38;;;;;;;33.33;20.35;;;;;;;7.03;100.00;102637.50;5153855;27;20062;-56
2022/04/15 06:19:06;;;;;;;31.63;20.80;;;;;;;7.06;100.00;102638.13;5153776;27;20033;-58
2022/04/15 06:21:32;;;;;;;31.55;20.98;;;;;;;7.12;100.00;102649.00;5153851;27;20030;-58
2022/04/15 06:23:58;;;;;;;31.88;20.20;;;;;;;7.20;100.00;102639.53;5152327;27;20038;-55
2022/04/15 06:26:23;;;;;;;32.08;20.40;;;;;;;7.19;100.00;102646.13;5141897;27;20154;-58
2022/04/15 06:28:48;;;;;;;33.17;20.85;;;;;;;7.16;100.00;102649.38;5153500;27;20018;-58
2022/04/15 06:31:14;;;;;;;32.90;20.80;;;;;;;7.18;100.00;102642.53;5153573;27;20471;-57
2022/04/15 06:33:39;;;;;;;34.17;21.40;;;;;;;7.25;100.00;102647.94;5153534;27;20066;-55
2022/04/15 06:36:04;;;;;;;32.97;19.70;;;;;;;7.27;100.00;102644.94;5157295;27;20022;-57
2022/04/15 06:38:30;;;;;;;32.55;20.88;;;;;;;7.29;100.00;102656.53;5145364;27;20505;-57
2022/04/15 06:40:55;;;;;;;32.35;20.58;;;;;;;7.32;100.00;102658.84;5136250;27;20466;-56
2022/04/15 06:43:21;;;;;;;32.22;19.73;;;;;;;7.40;100.00;102660.38;5115720;28;20050;-55
2022/04/15 06:45:46;;;;;;;31.23;19.60;;;;;;;7.44;100.00;102665.16;5115965;28;20027;-55
2022/04/15 06:48:12;;;;;;;31.23;18.95;;;;;;;7.51;100.00;102665.03;5116013;28;20431;-57
2022/04/15 06:50:37;;;;;;;28.27;19.08;;;;;;;7.48;100.00;102665.50;5116175;28;20028;-56
2022/04/15 06:53:03;;;;;;;30.88;18.50;;;;;;;7.54;100.00;102670.06;5120555;27;20111;-53
2022/04/15 06:55:28;;;;;;;30.23;17.85;;;;;;;7.60;100.00;102673.78;5137385;27;20471;-56
2022/04/15 06:57:53;;;;;;;27.90;17.33;;;;;;;7.57;100.00;102671.50;5155014;27;20114;-53
2022/04/15 07:00:19;;;;;;;30.75;17.45;;;;;;;7.62;100.00;102675.22;5156915;27;20087;-58
2022/04/15 07:02:45;;;;;;;28.27;17.85;;;;;;;7.58;98.77;102676.75;5100629;27;20126;-56
2022/04/15 07:05:10;;;;;;;29.33;17.55;;;;;;;7.58;99.17;102679.50;5115779;28;20024;-57
2022/04/15 07:07:37;;;;;;;29.95;19.25;;;;;;;7.56;99.16;102681.66;5115047;28;20139;-57
2022/04/15 07:10:03;;;;;;;30.38;18.27;;;;;;;7.57;98.88;102679.75;5115110;28;20429;-57
2022/04/15 07:12:28;;;;;;;28.67;17.73;;;;;;;7.59;99.02;102683.94;5128202;27;20475;-55
2022/04/15 07:14:55;;;;;;;28.23;16.83;;;;;;;7.72;99.00;102693.03;5133107;27;20056;-55
2022/04/15 07:17:21;;;;;;;30.35;16.33;;;;;;;7.80;97.62;102689.91;5134123;27;20026;-54
2022/04/15 07:19:46;;;;;;;25.42;15.13;;;;;;;7.87;95.79;102690.63;5138394;27;20403;-57
2022/04/15 07:22:11;;;;;;;24.77;14.30;;;;;;;7.93;93.86;102689.66;5132789;27;20016;-56
2022/04/15 07:24:36;;;;;;;26.38;17.00;;;;;;;8.07;94.57;102693.00;5152617;27;20050;-56
2022/04/15 07:27:03;;;;;;;24.90;15.50;;;;;;;8.15;92.95;102694.50;5154357;27;20347;-55
2022/04/15 07:29:30;;;;;;;25.80;15.95;;;;;;;8.12;92.58;102695.00;5154459;27;20026;-57
2022/04/15 07:31:55;;;;;;;26.95;15.68;;;;;;;8.18;92.35;102693.16;5154437;27;20038;-56
2022/04/15 07:34:20;;;;;;;25.58;15.13;;;;;;;8.28;91.35;102693.38;5116530;27;20028;-56
2022/04/15 07:36:53;;;;;;;24.83;14.77;;;;;;;8.51;90.93;102698.00;5114164;28;20081;-54
2022/04/15 07:39:20;;;;;;;24.75;15.40;;;;;;;8.65;91.09;102690.25;5137974;27;20027;-57
2022/04/15 07:41:45;;;;;;;26.35;15.20;;;;;;;8.78;90.35;102691.88;5147927;27;20023;-56
2022/04/15 07:44:11;;;;;;;24.38;15.02;;;;;;;8.87;87.72;102697.81;5137640;27;20050;-56
2022/04/15 07:46:38;;;;;;;23.65;14.45;;;;;;;8.95;86.88;102700.16;5134042;27;20540;-57
2022/04/15 07:49:04;;;;;;;25.02;14.90;;;;;;;9.04;87.02;102700.59;5118092;27;20042;-57
2022/04/15 07:51:30;;;;;;;25.02;14.30;;;;;;;9.13;85.72;102698.25;5151164;27;20067;-57
2022/04/15 07:53:56;;;;;;;25.25;14.57;;;;;;;9.18;84.71;102695.59;5141561;27;20058;-57
2022/04/15 07:56:21;;;;;;;25.52;16.33;;;;;;;9.43;85.24;102695.16;5150667;27;20184;-57
2022/04/15 07:58:47;;;;;;;22.20;13.43;;;;;;;9.71;83.28;102695.25;5135518;27;20035;-57
2022/04/15 08:01:12;;;;;;;20.98;11.32;;;;;;;9.90;77.01;102693.03;5116784;27;20065;-57
2022/04/15 08:03:38;;;;;;;19.45;11.38;;;;;;;10.09;77.53;102693.56;5144963;27;20526;-58
2022/04/15 08:06:04;;;;;;;19.42;10.80;;;;;;;10.18;74.11;102694.78;5136755;27;20514;-59
2022/04/15 08:08:29;;;;;;;21.98;11.48;;;;;;;10.32;74.91;102689.69;5143382;27;20037;-59
2022/04/15 08:10:55;;;;;;;20.20;12.00;;;;;;;10.49;74.82;102694.31;5155497;27;20098;-57
2022/04/15 08:13:21;;;;;;;21.13;12.50;;;;;;;10.63;75.29;102701.13;5154927;27;20019;-58
2022/04/15 08:15:48;;;;;;;21.98;12.52;;;;;;;10.83;73.67;102696.88;5138679;27;20519;-56
2022/04/15 08:18:14;;;;;;;20.35;12.68;;;;;;;10.88;72.88;102694.16;5153746;27;20053;-57
2022/04/15 08:20:39;;;;;;;20.08;11.68;;;;;;;10.99;72.59;102703.41;5140787;27;20054;-57
2022/04/15 08:23:04;;;;;;;19.80;11.70;;;;;;;11.10;71.13;102698.78;5154330;27;20037;-56
2022/04/15 08:25:30;;;;;;;19.20;11.60;;;;;;;11.13;70.83;102699.06;5132342;27;20047;-56
2022/04/15 08:27:56;;;;;;;22.08;12.48;;;;;;;10.89;69.63;102701.34;5130144;27;20027;-57
2022/04/15 08:30:21;;;;;;;20.40;11.95;;;;;;;10.74;71.13;102708.44;5143104;27;20042;-57
2022/04/15 08:32:53;;;;;;;19.48;11.68;;;;;;;10.57;70.44;102699.41;5153546;27;20098;-57
2022/04/15 08:35:19;;;;;;;20.60;11.65;;;;;;;10.54;71.04;102699.91;5154148;27;20018;-57
2022/04/15 08:37:44;;;;;;;20.70;11.82;;;;;;;10.61;71.69;102695.00;5155342;27;20467;-57
2022/04/15 08:40:13;;;;;;;19.73;11.88;;;;;;;10.69;70.99;102700.06;5154950;27;20030;-57
2022/04/15 08:42:42;;;;;;;19.38;11.73;;;;;;;10.59;70.17;102695.28;5136649;27;20035;-57
2022/04/15 08:45:08;;;;;;;19.00;11.38;;;;;;;10.61;70.17;102701.38;5155397;27;20503;-56
2022/04/15 08:47:36;;;;;;;20.63;11.55;;;;;;;10.50;69.48;102702.38;5154753;27;20132;-57
2022/04/15 08:50:03;;;;;;;19.65;11.75;;;;;;;10.56;70.45;102711.56;5154728;27;20106;-57
2022/04/15 08:52:28;;;;;;;20.23;11.50;;;;;;;10.72;70.45;102713.38;5155159;27;20513;-57
2022/04/15 08:54:54;;;;;;;19.42;11.63;;;;;;;10.88;70.71;102710.75;5153879;27;20064;-57
2022/04/15 08:57:19;;;;;;;19.30;12.10;;;;;;;11.23;69.92;102718.56;5154542;27;20035;-57
2022/04/15 08:59:44;;;;;;;20.23;11.63;;;;;;;11.34;67.08;102719.47;5153387;27;20501;-57
2022/04/15 09:02:11;;;;;;;19.27;11.90;;;;;;;11.36;66.85;102720.03;5154622;27;20105;-57
2022/04/15 09:04:36;;;;;;;20.55;11.20;;;;;;;11.36;66.78;102721.97;5154810;27;20111;-57
2022/04/15 09:07:02;;;;;;;21.10;11.90;;;;;;;11.29;67.35;102730.50;5154782;27;20050;-57
2022/04/15 09:09:29;;;;;;;20.50;11.82;;;;;;;11.23;67.52;102718.56;5155049;27;20034;-57
2022/04/15 09:11:56;;;;;;;19.40;11.40;;;;;;;11.37;67.57;102729.19;5154614;27;20387;-57
2022/04/15 09:14:23;;;;;;;19.58;11.95;;;;;;;11.55;67.18;102727.94;5154643;27;20083;-57
2022/04/15 09:16:48;;;;;;;19.48;11.82;;;;;;;11.74;67.09;102719.16;5154712;27;20026;-57
2022/04/15 09:19:14;;;;;;;19.45;11.82;;;;;;;11.92;66.17;102727.03;5154590;27;20052;-57
2022/04/15 09:21:42;;;;;;;18.88;10.95;;;;;;;12.14;65.15;102732.44;5154744;27;20022;-57
2022/04/15 09:24:07;;;;;;;18.65;11.02;;;;;;;12.22;63.87;102730.28;5154825;27;20033;-57
2022/04/15 09:26:36;;;;;;;20.13;11.32;;;;;;;12.26;63.96;102728.63;5154246;27;20043;-57
2022/04/15 09:29:01;;;;;;;20.13;11.45;;;;;;;12.38;63.32;102728.38;5154472;27;20026;-56
2022/04/15 09:31:26;;;;;;;18.70;11.60;;;;;;;12.28;63.51;102738.31;5135881;27;20091;-56
2022/04/15 09:34:02;;;;;;;18.38;11.15;;;;;;;12.41;63.41;102730.59;5154380;27;20026;-57
2022/04/15 09:36:35;;;;;;;19.08;11.27;;;;;;;12.55;61.81;102734.56;5154616;27;20498;-56
2022/04/15 09:39:11;;;;;;;18.25;11.30;;;;;;;12.54;62.50;102743.13;5135910;27;20052;-56
2022/04/15 09:41:50;;;;;;;19.73;11.75;;;;;;;12.67;61.88;102742.63;5154536;27;20516;-56
2022/04/15 09:44:16;;;;;;;19.02;11.52;;;;;;;12.79;61.66;102748.78;5154830;27;20393;-56
2022/04/15 09:46:44;;;;;;;20.00;12.00;;;;;;;12.87;61.16;102750.16;5154317;27;20026;-57
2022/04/15 09:49:10;;;;;;;19.25;11.35;;;;;;;13.07;61.63;102748.53;5154212;27;20022;-57
2022/04/15 09:51:37;;;;;;;20.38;12.23;;;;;;;13.25;60.55;102749.94;5135394;27;20038;-56
2022/04/15 09:54:04;;;;;;;19.88;11.57;;;;;;;13.39;59.16;102751.06;5153883;27;20475;-57
2022/04/15 09:56:37;;;;;;;19.33;11.48;;;;;;;13.37;59.73;102744.91;5154078;27;20044;-57
2022/04/15 09:59:08;;;;;;;19.77;11.63;;;;;;;13.04;58.94;102754.63;5153923;27;20023;-58
2022/04/15 10:01:37;;;;;;;18.75;11.73;;;;;;;12.73;59.72;102744.31;5154148;27;20030;-57
2022/04/15 10:04:05;;;;;;;19.30;11.40;;;;;;;12.70;60.69;102744.03;5154193;27;20079;-57
2022/04/15 10:06:31;;;;;;;19.45;12.10;;;;;;;12.67;60.44;102747.34;5154022;27;20046;-58
2022/04/15 10:08:59;;;;;;;19.70;11.73;;;;;;;12.86;59.91;102744.88;5153480;27;20497;-58
2022/04/15 10:11:24;;;;;;;20.00;11.25;;;;;;;12.95;60.26;102749.63;5158533;27;20417;-58
2022/04/15 10:13:51;;;;;;;19.60;11.88;;;;;;;12.86;60.60;102737.38;5158218;27;20019;-58
2022/04/15 10:16:16;;;;;;;17.80;10.85;;;;;;;12.64;59.51;102741.25;5158268;27;20018;-58
2022/04/15 10:18:44;;;;;;;19.08;11.35;;;;;;;12.56;60.23;102739.00;5158228;27;20084;-56
2022/04/15 10:21:10;;;;;;;18.77;11.48;;;;;;;12.52;59.67;102739.78;5139142;27;20034;-56
2022/04/15 10:23:35;;;;;;;18.92;11.20;;;;;;;12.55;60.06;102744.81;5157983;27;20019;-56
2022/04/15 10:26:03;;;;;;;18.45;11.43;;;;;;;12.58;60.23;102744.28;5157805;27;20039;-56
2022/04/15 10:28:45;;;;;;;17.98;11.10;;;;;;;12.33;60.79;102738.38;5157844;27;20022;-57
2022/04/15 10:31:13;;;;;;;19.27;11.45;;;;;;;12.41;60.95;102739.78;5157670;27;20026;-57
2022/04/15 10:33:39;;;;;;;19.70;11.70;;;;;;;12.59;59.85;102741.22;5139221;27;20390;-56
2022/04/15 10:36:21;;;;;;;20.02;11.18;;;;;;;12.72;60.23;102739.84;5157416;27;20018;-57
2022/04/15 10:39:01;;;;;;;19.20;11.30;;;;;;;12.90;60.64;102734.88;5139191;27;20022;-57
2022/04/15 10:41:27;;;;;;;19.17;11.57;;;;;;;12.90;58.11;102738.50;5157761;27;20035;-57
2022/04/15 10:43:59;;;;;;;18.55;11.55;;;;;;;13.05;57.88;102732.13;5157715;27;20071;-57
2022/04/15 10:46:30;;;;;;;18.52;11.07;;;;;;;13.27;57.43;102731.03;5138758;27;20022;-55
2022/04/15 10:48:59;;;;;;;18.90;11.20;;;;;;;13.38;57.13;102729.91;5157501;27;20167;-56
2022/04/15 10:51:33;;;;;;;19.23;11.55;;;;;;;13.40;56.70;102729.66;5157268;27;20368;-56
2022/04/15 10:54:29;;;;;;;17.98;10.90;;;;;;;13.45;58.29;102726.03;5157759;27;20023;-55
2022/04/15 10:57:09;;;;;;;19.95;11.80;;;;;;;13.81;56.52;102718.44;5157443;27;20022;-57
2022/04/15 11:02:21;;;;;;;19.05;11.38;;;;;;;14.12;56.23;102714.75;5157763;27;20038;-57
2022/04/15 11:04:49;;;;;;;18.73;11.40;;;;;;;14.20;55.91;102716.94;5157176;27;20350;-57
2022/04/15 11:07:26;;;;;;;18.27;11.02;;;;;;;13.97;56.79;102721.19;5157455;27;20050;-58
2022/04/15 11:09:52;;;;;;;20.33;11.20;;;;;;;13.78;56.06;102724.59;5157190;27;20122;-57
2022/04/15 11:12:35;;;;;;;18.10;11.18;;;;;;;13.59;56.62;102718.78;5157325;27;20086;-57